Time;durP1;ratioP1;P1;durP2;ratioP2;P2;SDS_P1;SDS_P2;PMS_P1;PMS_P2;Temp;Humidity;BMP_temperature;BMP_pressure;BME280_temperature;BME280_humidity;BME280_pressure;Samples;Min_cycle;Max_cycle;Signal;HPM_P1;HPM_P2
2022/06/28 00:00:33;;;;;;;0.57;0.30;;;21.40;91.40;;;;;;4121829;28;20066;-75
2022/06/28 00:02:35;;;;;;;0.40;0.40;;;21.40;91.40;;;;;;4124140;28;20186;-75
2022/06/28 00:04:37;;;;;;;0.57;0.30;;;21.40;91.30;;;;;;4123256;28;20103;-76
2022/06/28 00:06:39;;;;;;;0.30;0.30;;;21.40;91.30;;;;;;4120970;28;20912;-75
2022/06/28 00:08:40;;;;;;;0.40;0.30;;;21.40;91.20;;;;;;4122113;28;20788;-75
2022/06/28 00:10:42;;;;;;;0.20;0.20;;;21.40;91.20;;;;;;4125542;28;20058;-76
2022/06/28 00:12:44;;;;;;;0.45;0.38;;;21.40;91.20;;;;;;4125937;28;21197;-76
2022/06/28 00:17:06;;;;;;;0.30;0.30;;;21.40;91.10;;;;;;4127426;28;20062;-75
2022/06/28 00:19:08;;;;;;;0.50;0.50;;;21.40;91.10;;;;;;4123915;28;20063;-76
2022/06/28 00:21:10;;;;;;;0.20;0.20;;;21.40;91.10;;;;;;4126563;28;20069;-75
2022/06/28 00:23:12;;;;;;;0.73;0.43;;;21.40;91.00;;;;;;4126293;28;20067;-75
2022/06/28 00:25:14;;;;;;;0.40;0.30;;;21.40;91.00;;;;;;4124454;28;20634;-76
2022/06/28 00:27:17;;;;;;;0.75;0.47;;;21.40;91.00;;;;;;4124747;28;20158;-75
2022/06/28 00:29:19;;;;;;;0.52;0.30;;;21.40;91.00;;;;;;4122671;28;20090;-76
2022/06/28 00:31:24;;;;;;;10.32;0.90;;;21.40;90.90;;;;;;4123257;28;20089;-75
2022/06/28 00:33:26;;;;;;;0.20;0.20;;;21.40;90.90;;;;;;4127471;28;20064;-76
2022/06/28 00:35:28;;;;;;;0.20;0.17;;;21.40;90.90;;;;;;4129494;28;20058;-75
2022/06/28 00:37:30;;;;;;;0.20;0.20;;;21.40;90.80;;;;;;4124247;28;20058;-76
2022/06/28 00:39:32;;;;;;;0.38;0.30;;;21.40;90.80;;;;;;4125301;28;20091;-76
2022/06/28 00:41:34;;;;;;;1.55;0.30;;;21.40;90.80;;;;;;4119629;28;20775;-76
2022/06/28 00:43:36;;;;;;;0.20;0.20;;;21.40;90.80;;;;;;4122462;28;20105;-76
2022/06/28 00:45:38;;;;;;;0.20;0.20;;;21.40;90.70;;;;;;4121680;28;20058;-76
2022/06/28 00:47:40;;;;;;;1.85;0.30;;;21.40;90.70;;;;;;4117846;28;20069;-76
2022/06/28 00:49:42;;;;;;;0.75;0.10;;;21.40;90.70;;;;;;4118579;28;20070;-75
2022/06/28 00:51:44;;;;;;;0.30;0.22;;;21.40;90.70;;;;;;4123998;28;20051;-75
2022/06/28 00:53:46;;;;;;;0.28;0.25;;;21.40;90.60;;;;;;4119118;28;20059;-75
2022/06/28 00:55:48;;;;;;;0.20;0.20;;;21.40;90.60;;;;;;4121550;28;20105;-75
2022/06/28 00:57:49;;;;;;;0.50;0.30;;;21.40;90.60;;;;;;4119505;28;20059;-75
2022/06/28 00:59:51;;;;;;;0.13;0.13;;;21.40;90.60;;;;;;4119232;28;20058;-75
2022/06/28 01:01:53;;;;;;;1.67;0.28;;;21.40;90.60;;;;;;4120673;28;20201;-75
2022/06/28 01:03:55;;;;;;;0.25;0.25;;;21.40;90.50;;;;;;4121681;28;20059;-75
2022/06/28 01:05:57;;;;;;;0.88;0.20;;;21.40;90.50;;;;;;4121449;28;20662;-76
2022/06/28 01:08:01;;;;;;;0.20;0.20;;;21.40;90.50;;;;;;4124791;28;20098;-76
2022/06/28 01:10:02;;;;;;;0.73;0.25;;;21.40;90.50;;;;;;4121151;28;20870;-76
2022/06/28 01:12:05;;;;;;;0.73;0.20;;;21.40;90.40;;;;;;4127771;28;20051;-76
2022/06/28 01:14:07;;;;;;;0.20;0.20;;;21.40;90.40;;;;;;4123864;28;20062;-76
2022/06/28 01:16:09;;;;;;;0.20;0.20;;;21.40;90.40;;;;;;4125013;28;20061;-75
2022/06/28 01:18:12;;;;;;;0.10;0.10;;;21.30;90.30;;;;;;4127826;28;20227;-75
2022/06/28 01:20:14;;;;;;;0.82;0.15;;;21.30;90.30;;;;;;4126608;28;20069;-76
2022/06/28 01:22:18;;;;;;;0.35;0.30;;;21.40;90.30;;;;;;4124161;28;20869;-75
2022/06/28 01:24:20;;;;;;;0.20;0.20;;;21.30;90.30;;;;;;4124223;28;20209;-75
2022/06/28 01:26:23;;;;;;;0.32;0.10;;;21.40;90.30;;;;;;4125751;28;20094;-75
2022/06/28 01:28:25;;;;;;;0.20;0.20;;;21.30;90.20;;;;;;4124850;28;20054;-75
2022/06/28 01:30:27;;;;;;;0.13;0.13;;;21.30;90.20;;;;;;4125886;28;20058;-75
2022/06/28 01:32:29;;;;;;;0.20;0.20;;;21.30;90.20;;;;;;4123652;28;20169;-76
2022/06/28 01:34:31;;;;;;;0.28;0.20;;;21.30;90.20;;;;;;4123647;28;20058;-76
2022/06/28 01:36:32;;;;;;;0.30;0.30;;;21.30;90.20;;;;;;4124819;28;20074;-75
2022/06/28 01:38:35;;;;;;;0.30;0.10;;;21.30;90.10;;;;;;4127514;28;20067;-75
2022/06/28 01:40:37;;;;;;;0.85;0.45;;;21.30;90.10;;;;;;4130768;28;20062;-75
2022/06/28 01:42:39;;;;;;;0.10;0.10;;;21.40;90.10;;;;;;4127975;28;20055;-75
2022/06/28 01:44:43;;;;;;;0.10;0.10;;;21.30;90.10;;;;;;4128973;28;20156;-75
2022/06/28 01:46:45;;;;;;;0.00;0.00;;;21.40;90.10;;;;;;4124237;28;20059;-76
2022/06/28 01:48:46;;;;;;;1.05;0.30;;;21.30;90.00;;;;;;4123234;28;20125;-75
2022/06/28 01:50:49;;;;;;;0.28;0.22;;;21.40;90.00;;;;;;4121101;28;20055;-76
2022/06/28 01:52:51;;;;;;;0.20;0.20;;;21.30;90.00;;;;;;4125044;28;20061;-76
2022/06/28 01:54:52;;;;;;;0.30;0.20;;;21.30;90.00;;;;;;4127398;28;20783;-76
2022/06/28 01:56:55;;;;;;;0.10;0.10;;;21.30;90.00;;;;;;4125839;28;20920;-76
2022/06/28 01:58:57;;;;;;;0.68;0.20;;;21.30;89.90;;;;;;4127052;28;20177;-76
2022/06/28 02:00:59;;;;;;;0.30;0.30;;;21.30;89.90;;;;;;4128664;28;20062;-76
2022/06/28 02:03:01;;;;;;;0.65;0.22;;;21.30;89.80;;;;;;4126194;28;20090;-76
2022/06/28 02:05:03;;;;;;;0.30;0.20;;;21.30;89.80;;;;;;4128595;28;20065;-76
2022/06/28 02:07:05;;;;;;;0.20;0.20;;;21.30;89.80;;;;;;4121977;28;20085;-76
2022/06/28 02:09:07;;;;;;;0.55;0.20;;;21.30;89.70;;;;;;4128588;28;20716;-76
2022/06/28 02:11:08;;;;;;;0.10;0.10;;;21.30;89.70;;;;;;4123747;28;20060;-76
2022/06/28 02:13:10;;;;;;;0.10;0.10;;;21.30;89.70;;;;;;4130011;28;20086;-76
2022/06/28 02:15:13;;;;;;;0.20;0.20;;;21.30;89.70;;;;;;4128954;28;20101;-76
2022/06/28 02:17:15;;;;;;;1.17;0.20;;;21.30;89.60;;;;;;4128045;28;20077;-76
2022/06/28 02:19:17;;;;;;;0.20;0.20;;;21.20;89.50;;;;;;4129351;28;20066;-76
2022/06/28 02:21:19;;;;;;;0.17;0.17;;;21.20;89.50;;;;;;4129913;28;20098;-76
2022/06/28 02:23:20;;;;;;;0.20;0.20;;;21.20;89.40;;;;;;4124650;28;20807;-76
2022/06/28 02:25:22;;;;;;;0.32;0.10;;;21.20;89.40;;;;;;4123180;28;20094;-76
2022/06/28 02:27:24;;;;;;;0.52;0.10;;;21.30;89.40;;;;;;4121598;28;20802;-76
2022/06/28 02:29:26;;;;;;;0.20;0.20;;;21.20;89.30;;;;;;4127361;28;20051;-76
2022/06/28 02:31:28;;;;;;;0.35;0.35;;;21.20;89.30;;;;;;4121533;28;20132;-76
2022/06/28 02:33:29;;;;;;;2.05;0.30;;;21.20;89.20;;;;;;4125253;28;20188;-76
2022/06/28 02:40:21;;;;;;;0.20;0.20;;;21.20;89.10;;;;;;4123833;28;20945;-76
2022/06/28 02:42:23;;;;;;;0.30;0.30;;;21.20;89.10;;;;;;4128515;28;20063;-76
2022/06/28 02:44:24;;;;;;;0.38;0.20;;;21.20;89.10;;;;;;4127996;28;20222;-76
2022/06/28 02:46:26;;;;;;;0.50;0.30;;;21.20;89.00;;;;;;4126902;28;20067;-76
2022/06/28 02:48:28;;;;;;;0.10;0.10;;;21.20;89.00;;;;;;4119860;28;20768;-76
2022/06/28 02:50:30;;;;;;;0.30;0.30;;;21.20;89.00;;;;;;4124636;28;20995;-77
2022/06/28 02:52:31;;;;;;;0.40;0.20;;;21.20;88.90;;;;;;4121511;28;20055;-76
2022/06/28 02:54:33;;;;;;;1.75;0.20;;;21.10;88.80;;;;;;4123212;28;20130;-76
2022/06/28 02:56:35;;;;;;;0.38;0.30;;;21.20;88.90;;;;;;4123544;28;20063;-76
2022/06/28 02:58:37;;;;;;;0.30;0.30;;;21.20;88.80;;;;;;4121599;28;20050;-76
2022/06/28 03:00:38;;;;;;;0.57;0.57;;;21.20;88.80;;;;;;4123951;28;20065;-76
2022/06/28 03:02:41;;;;;;;0.75;0.30;;;21.20;88.80;;;;;;4121453;28;20063;-76
2022/06/28 03:04:44;;;;;;;0.30;0.10;;;21.10;88.70;;;;;;4119049;28;20124;-76
2022/06/28 03:06:45;;;;;;;0.30;0.20;;;21.20;88.80;;;;;;4129573;28;20063;-76
2022/06/28 03:08:47;;;;;;;0.38;0.30;;;21.20;88.70;;;;;;4121033;28;20173;-76
2022/06/28 03:10:49;;;;;;;0.55;0.20;;;21.20;88.70;;;;;;4125573;28;20173;-76
2022/06/28 03:12:51;;;;;;;1.00;0.40;;;21.20;88.60;;;;;;4128998;28;20791;-76
2022/06/28 03:14:52;;;;;;;0.30;0.30;;;21.20;88.60;;;;;;4119502;28;20059;-76
2022/06/28 03:16:54;;;;;;;0.20;0.20;;;21.10;88.50;;;;;;4117759;28;20102;-76
2022/06/28 03:18:56;;;;;;;0.28;0.10;;;21.10;88.40;;;;;;4123552;28;20118;-76
2022/06/28 03:20:57;;;;;;;0.28;0.20;;;21.20;88.50;;;;;;4117684;28;20086;-76
2022/06/28 03:22:59;;;;;;;0.73;0.15;;;21.10;88.40;;;;;;4116869;28;20066;-76
2022/06/28 03:25:01;;;;;;;0.40;0.20;;;21.10;88.30;;;;;;4116782;28;20098;-76
2022/06/28 03:27:03;;;;;;;0.22;0.20;;;21.10;88.20;;;;;;4117097;28;20106;-76
2022/06/28 03:29:05;;;;;;;3.22;0.30;;;21.20;88.30;;;;;;4119307;28;20059;-76
2022/06/28 03:31:07;;;;;;;0.20;0.20;;;21.10;88.20;;;;;;4118033;28;20065;-76
2022/06/28 03:33:08;;;;;;;0.38;0.20;;;21.10;88.20;;;;;;4120294;28;20065;-76
2022/06/28 03:35:10;;;;;;;0.10;0.10;;;21.10;88.20;;;;;;4118827;28;20055;-76
2022/06/28 03:37:12;;;;;;;0.20;0.20;;;21.20;88.20;;;;;;4117962;28;20881;-76
2022/06/28 03:39:14;;;;;;;0.20;0.20;;;21.10;88.10;;;;;;4121094;28;20095;-76
2022/06/28 03:41:22;;;;;;;0.50;0.30;;;21.20;88.20;;;;;;4119361;28;20182;-76
2022/06/28 03:43:25;;;;;;;0.25;0.25;;;21.10;88.10;;;;;;4127057;28;20086;-76
2022/06/28 03:45:27;;;;;;;0.50;0.40;;;21.10;88.00;;;;;;4126293;28;20189;-76
2022/06/28 03:47:28;;;;;;;0.15;0.15;;;21.10;87.90;;;;;;4128147;28;20220;-76
2022/06/28 03:49:30;;;;;;;0.20;0.20;;;21.10;87.80;;;;;;4130619;28;20093;-76
2022/06/28 03:51:32;;;;;;;0.63;0.30;;;21.10;87.80;;;;;;4128408;28;20913;-76
2022/06/28 03:53:34;;;;;;;0.40;0.20;;;21.10;87.80;;;;;;4129338;28;20165;-76
2022/06/28 03:55:35;;;;;;;1.92;0.32;;;21.10;87.80;;;;;;4129107;28;20055;-76
2022/06/28 03:57:37;;;;;;;1.85;0.10;;;21.10;87.80;;;;;;4128915;28;20850;-76
2022/06/28 03:59:39;;;;;;;0.30;0.30;;;21.10;87.80;;;;;;4129417;28;20095;-76
2022/06/28 04:01:40;;;;;;;0.30;0.13;;;21.10;87.80;;;;;;4134286;28;20070;-76
2022/06/28 04:03:42;;;;;;;0.40;0.20;;;21.10;87.80;;;;;;4128601;28;20062;-76
2022/06/28 04:05:44;;;;;;;0.55;0.20;;;21.10;87.80;;;;;;4130303;28;20059;-76
2022/06/28 04:07:47;;;;;;;0.20;0.20;;;21.10;87.70;;;;;;4127768;28;20095;-76
2022/06/28 04:09:49;;;;;;;0.22;0.22;;;21.10;87.60;;;;;;4127000;28;20061;-76
2022/06/28 04:11:50;;;;;;;0.73;0.30;;;21.10;87.70;;;;;;4126746;28;20059;-76
2022/06/28 04:13:53;;;;;;;0.20;0.20;;;21.10;87.60;;;;;;4131930;28;20062;-76
2022/06/28 04:15:55;;;;;;;0.20;0.20;;;21.10;87.60;;;;;;4127451;28;20059;-76
2022/06/28 04:17:58;;;;;;;0.30;0.30;;;21.10;87.60;;;;;;4128409;28;20174;-76
2022/06/28 04:19:59;;;;;;;0.20;0.20;;;21.10;87.50;;;;;;4125630;28;20153;-76
2022/06/28 04:22:01;;;;;;;0.52;0.30;;;21.10;88.20;;;;;;4140083;28;20082;-76
2022/06/28 04:24:03;;;;;;;0.52;0.30;;;21.10;87.40;;;;;;4124344;28;20078;-76
2022/06/28 04:26:05;;;;;;;0.50;0.40;;;21.10;87.40;;;;;;4127273;28;20160;-75
2022/06/28 04:28:07;;;;;;;0.20;0.20;;;21.10;87.40;;;;;;4122322;28;20059;-76
2022/06/28 04:30:09;;;;;;;2.95;0.20;;;21.10;87.40;;;;;;4123968;28;20149;-76
2022/06/28 04:32:11;;;;;;;0.20;0.20;;;21.10;87.30;;;;;;4132400;28;20059;-76
2022/06/28 04:34:12;;;;;;;0.75;0.45;;;21.10;87.30;;;;;;4125465;28;20059;-76
2022/06/28 04:36:14;;;;;;;0.38;0.20;;;21.10;87.20;;;;;;4121036;28;20170;-76
2022/06/28 04:38:16;;;;;;;0.15;0.10;;;21.10;87.20;;;;;;4124595;28;21687;-76
2022/06/28 04:40:18;;;;;;;0.20;0.20;;;21.10;87.20;;;;;;4127536;28;20082;-76
2022/06/28 04:42:19;;;;;;;1.10;0.25;;;21.10;87.20;;;;;;4133785;28;20849;-76
2022/06/28 04:44:21;;;;;;;0.20;0.20;;;21.10;87.10;;;;;;4123285;28;20165;-76
2022/06/28 04:46:23;;;;;;;0.35;0.25;;;21.10;87.10;;;;;;4126959;28;20070;-76
2022/06/28 04:48:25;;;;;;;0.35;0.20;;;21.10;87.10;;;;;;4122921;28;20051;-76
2022/06/28 04:50:26;;;;;;;0.40;0.30;;;21.10;87.10;;;;;;4130282;28;20055;-76
2022/06/28 04:52:28;;;;;;;0.20;0.20;;;21.10;87.00;;;;;;4125387;28;20055;-76
2022/06/28 04:54:30;;;;;;;0.30;0.30;;;21.10;87.00;;;;;;4132894;28;20070;-76
2022/06/28 04:56:31;;;;;;;1.42;0.20;;;21.10;87.00;;;;;;4123924;28;20059;-76
2022/06/28 04:58:33;;;;;;;0.30;0.30;;;21.10;87.00;;;;;;4125187;28;20059;-76
2022/06/28 05:00:35;;;;;;;0.32;0.22;;;21.10;86.90;;;;;;4127058;28;20066;-76
2022/06/28 05:02:57;;;;;;;0.20;0.20;;;21.10;86.90;;;;;;4131538;28;21593;-77
2022/06/28 05:04:59;;;;;;;0.63;0.30;;;21.10;86.90;;;;;;4131172;28;20065;-76
2022/06/28 05:07:00;;;;;;;0.28;0.28;;;21.10;86.90;;;;;;4128879;28;20113;-77
2022/06/28 05:09:02;;;;;;;0.20;0.20;;;21.10;86.80;;;;;;4124025;28;20063;-76
2022/06/28 05:11:24;;;;;;;0.28;0.25;;;21.10;86.80;;;;;;4126252;28;20870;-76
2022/06/28 05:13:26;;;;;;;0.32;0.20;;;21.10;86.80;;;;;;4125818;28;20111;-76
2022/06/28 05:15:28;;;;;;;0.73;0.20;;;21.10;86.80;;;;;;4125928;28;20063;-76
2022/06/28 05:17:29;;;;;;;0.95;0.95;;;21.10;86.80;;;;;;4159432;22;20061;-77
2022/06/28 05:19:33;;;;;;;0.75;0.30;;;21.10;86.80;;;;;;4157290;28;20878;-75
2022/06/28 05:21:35;;;;;;;0.43;0.32;;;21.10;86.80;;;;;;4162410;28;20058;-77
2022/06/28 05:23:37;;;;;;;4.57;0.28;;;21.10;86.80;;;;;;4162038;28;20061;-76
2022/06/28 05:25:39;;;;;;;0.75;0.30;;;21.20;86.80;;;;;;4157458;28;20058;-71
2022/06/28 05:27:41;;;;;;;2.58;0.47;;;21.10;86.70;;;;;;4156163;28;20058;-76
2022/06/28 05:29:42;;;;;;;2.25;1.88;;;21.20;86.70;;;;;;4159320;28;21368;-76
2022/06/28 05:32:07;;;;;;;7.22;2.15;;;21.10;85.80;;;;;;4159041;28;20172;-75
2022/06/28 05:34:19;;;;;;;5.20;2.55;;;20.90;85.50;;;;;;4163187;28;20058;-75
2022/06/28 05:36:29;;;;;;;4.90;2.40;;;20.70;85.70;;;;;;4163717;28;20762;-75
2022/06/28 05:38:41;;;;;;;2.47;2.28;;;20.50;86.30;;;;;;4163302;28;20201;-77
2022/06/28 05:40:46;;;;;;;3.57;2.63;;;20.20;87.10;;;;;;4165002;28;20061;-75
2022/06/28 05:42:55;;;;;;;6.07;2.78;;;20.00;88.10;;;;;;4162038;28;20425;-76
2022/06/28 05:45:12;;;;;;;2.80;2.60;;;19.80;88.90;;;;;;4159661;28;20096;-75
2022/06/28 05:47:36;;;;;;;4.00;2.60;;;19.70;89.60;;;;;;4161133;28;20769;-75
2022/06/28 05:50:00;;;;;;;4.10;3.70;;;19.50;90.10;;;;;;4160762;28;20061;-76
2022/06/28 05:52:02;;;;;;;3.65;3.35;;;19.50;90.50;;;;;;4164261;28;20069;-76
2022/06/28 05:54:30;;;;;;;4.82;3.45;;;19.40;90.70;;;;;;4122947;28;20059;-75
2022/06/28 05:56:42;;;;;;;4.18;3.72;;;19.30;90.80;;;;;;4128416;28;20797;-75
2022/06/28 05:58:55;;;;;;;5.70;4.17;;;19.30;91.10;;;;;;4121143;28;21142;-74
2022/06/28 06:03:49;;;;;;;4.72;3.88;;;18.90;91.50;;;;;;4120960;28;20063;-74
2022/06/28 06:06:34;;;;;;;4.75;4.35;;;18.80;91.80;;;;;;4126693;28;20230;-74
2022/06/28 06:08:53;;;;;;;3.58;3.38;;;18.80;92.00;;;;;;4123046;28;20062;-74
2022/06/28 06:11:20;;;;;;;4.28;3.92;;;18.70;92.30;;;;;;4125355;28;20162;-75
2022/06/28 06:13:30;;;;;;;4.57;3.97;;;18.70;92.60;;;;;;4129370;28;20058;-74
2022/06/28 06:15:38;;;;;;;4.00;3.70;;;18.70;92.60;;;;;;4126986;28;20157;-75
2022/06/28 06:17:59;;;;;;;4.50;4.18;;;18.70;92.60;;;;;;4116355;28;20137;-74
2022/06/28 06:20:30;;;;;;;4.72;4.32;;;18.70;92.60;;;;;;4137262;28;20059;-75
2022/06/28 06:22:42;;;;;;;4.78;4.38;;;18.70;92.70;;;;;;4125341;28;20694;-75
2022/06/28 06:24:51;;;;;;;4.82;4.43;;;18.60;92.90;;;;;;4129863;28;20145;-75
2022/06/28 06:27:13;;;;;;;3.80;3.50;;;18.60;93.00;;;;;;4123527;28;20062;-77
2022/06/28 06:29:19;;;;;;;7.90;3.17;;;18.60;93.10;;;;;;4122289;28;20079;-76
2022/06/28 06:31:33;;;;;;;3.17;2.97;;;18.60;93.10;;;;;;4128183;28;20797;-74
2022/06/28 06:36:18;;;;;;;3.17;2.92;;;18.70;93.20;;;;;;4157512;28;20077;-73
2022/06/28 06:38:37;;;;;;;3.70;3.40;;;18.70;93.20;;;;;;4164728;28;20058;-75
2022/06/28 06:40:42;;;;;;;3.20;3.00;;;18.70;93.20;;;;;;4158689;28;20062;-72
2022/06/28 06:42:49;;;;;;;2.40;2.30;;;18.70;93.30;;;;;;4160089;28;20904;-72
2022/06/28 06:44:58;;;;;;;3.38;2.30;;;18.80;93.30;;;;;;4160386;28;20780;-76
2022/06/28 06:47:36;;;;;;;7.05;2.92;;;18.70;93.30;;;;;;4159199;28;20132;-74
2022/06/28 06:49:48;;;;;;;3.25;2.58;;;18.70;93.20;;;;;;4164139;28;20062;-74
2022/06/28 06:52:14;;;;;;;6.78;5.57;;;18.80;93.20;;;;;;4162490;28;20184;-74
2022/06/28 06:54:23;;;;;;;4.97;4.55;;;18.80;93.40;;;;;;4159132;28;20058;-74
2022/06/28 06:56:34;;;;;;;4.03;3.63;;;18.70;93.40;;;;;;4159729;28;20773;-74
2022/06/28 06:58:41;;;;;;;6.22;3.35;;;18.70;93.50;;;;;;4163092;28;20805;-74
2022/06/28 07:00:55;;;;;;;4.68;4.13;;;18.70;93.50;;;;;;4159404;28;20647;-73
2022/06/28 07:03:44;;;;;;;3.67;3.28;;;18.70;93.60;;;;;;4162945;28;20058;-74
2022/06/28 07:05:53;;;;;;;4.15;3.85;;;18.70;93.70;;;;;;4155084;28;20092;-74
2022/06/28 07:08:02;;;;;;;3.13;2.92;;;18.70;93.70;;;;;;4162723;28;20124;-74
2022/06/28 07:10:11;;;;;;;5.15;3.42;;;18.60;93.70;;;;;;4158075;28;20058;-73
2022/06/28 07:12:22;;;;;;;4.75;3.42;;;18.70;93.80;;;;;;4157981;28;20084;-74
2022/06/28 07:14:39;;;;;;;3.90;3.60;;;18.70;93.90;;;;;;4164367;28;20065;-73
2022/06/28 07:16:46;;;;;;;3.70;3.33;;;18.60;93.90;;;;;;4163590;28;21169;-74
2022/06/28 07:18:55;;;;;;;3.53;3.22;;;18.70;94.00;;;;;;4159497;28;20057;-74
2022/06/28 07:21:05;;;;;;;3.42;2.90;;;18.70;94.00;;;;;;4162786;28;20879;-73
2022/06/28 07:23:15;;;;;;;5.90;3.50;;;18.70;94.00;;;;;;4163698;28;20061;-74
2022/06/28 07:25:30;;;;;;;3.60;3.30;;;18.60;94.00;;;;;;4158735;28;20066;-73
2022/06/28 07:27:47;;;;;;;4.22;3.92;;;18.60;94.20;;;;;;4156676;28;20068;-73
2022/06/28 07:29:56;;;;;;;3.25;2.67;;;18.50;94.30;;;;;;4156572;28;20058;-74
2022/06/28 07:32:23;;;;;;;3.55;3.25;;;18.50;94.40;;;;;;4162656;28;20092;-73
2022/06/28 07:34:37;;;;;;;4.47;3.97;;;18.50;94.60;;;;;;4160606;28;20066;-73
2022/06/28 07:36:47;;;;;;;;;;;18.50;94.70;;;;;;4159523;28;20132;-74
2022/06/28 07:39:07;;;;;;;2.83;2.63;;;18.50;95.00;;;;;;4156878;28;19929;-73
2022/06/28 07:41:17;;;;;;;4.30;4.00;;;18.50;94.80;;;;;;4155101;28;20157;-73
2022/06/28 07:43:26;;;;;;;4.97;3.50;;;18.50;94.80;;;;;;4161476;28;20062;-73
2022/06/28 07:45:39;;;;;;;4.75;4.30;;;18.50;94.90;;;;;;4157485;28;20066;-73
2022/06/28 07:47:51;;;;;;;3.85;3.55;;;18.50;95.10;;;;;;4157818;28;20221;-74
2022/06/28 07:52:56;;;;;;;5.28;4.03;;;18.50;95.30;;;;;;4136248;28;20066;-73
2022/06/28 07:55:19;;;;;;;3.90;3.35;;;18.50;95.30;;;;;;4157340;28;20063;-74
2022/06/28 07:57:31;;;;;;;4.30;4.00;;;18.50;95.30;;;;;;4150269;28;20062;-73
2022/06/28 08:02:45;;;;;;;5.28;3.72;;;18.60;95.20;;;;;;4153471;28;20097;-73
2022/06/28 08:04:59;;;;;;;3.28;3.05;;;18.60;95.30;;;;;;4163584;28;20153;-73
2022/06/28 08:07:07;;;;;;;3.65;3.35;;;18.60;95.30;;;;;;4159130;28;20062;-73
2022/06/28 08:09:24;;;;;;;3.25;3.05;;;18.70;95.20;;;;;;4151924;28;20066;-73
2022/06/28 08:11:40;;;;;;;5.50;3.13;;;18.70;95.10;;;;;;4161159;28;20217;-73
2022/06/28 08:13:54;;;;;;;5.90;4.35;;;18.80;95.00;;;;;;4151462;28;20117;-73
2022/06/28 08:16:07;;;;;;;4.03;3.72;;;18.80;95.00;;;;;;4163860;28;20795;-74
2022/06/28 08:18:13;;;;;;;4.35;3.55;;;18.80;94.80;;;;;;4154054;28;20069;-72
2022/06/28 08:20:24;;;;;;;5.32;3.00;;;18.70;94.90;;;;;;4158403;28;20832;-72
2022/06/28 08:22:54;;;;;;;3.75;3.45;;;18.70;94.90;;;;;;4157972;28;20933;-70
2022/06/28 08:24:59;;;;;;;4.68;3.05;;;18.70;95.10;;;;;;4153147;28;20775;-73
2022/06/28 08:27:08;;;;;;;4.93;2.60;;;18.80;95.10;;;;;;4162674;28;20887;-73
2022/06/28 08:29:27;;;;;;;6.00;3.88;;;18.80;95.10;;;;;;4163288;28;20883;-73
2022/06/28 08:31:44;;;;;;;4.35;3.00;;;18.80;95.30;;;;;;4156372;28;20045;-73
2022/06/28 08:33:55;;;;;;;3.88;3.60;;;18.90;94.90;;;;;;4165258;28;20069;-72
2022/06/28 08:36:12;;;;;;;3.65;3.22;;;18.90;94.80;;;;;;4150498;28;20050;-73
2022/06/28 08:38:23;;;;;;;2.17;2.08;;;19.00;94.80;;;;;;4165962;28;20068;-72
2022/06/28 08:40:38;;;;;;;3.95;3.60;;;19.00;94.70;;;;;;4166091;28;20161;-72
2022/06/28 08:42:51;;;;;;;2.97;2.70;;;19.10;94.60;;;;;;4158954;28;20058;-74
2022/06/28 08:45:03;;;;;;;2.38;2.20;;;19.10;94.30;;;;;;4163578;28;20064;-71
2022/06/28 08:47:23;;;;;;;2.58;2.40;;;19.20;94.30;;;;;;4161912;28;20054;-74
2022/06/28 08:49:56;;;;;;;2.83;2.63;;;19.20;94.20;;;;;;4165984;28;20093;-74
2022/06/28 08:52:05;;;;;;;2.35;2.25;;;19.30;94.00;;;;;;4160369;28;20916;-72
2022/06/28 08:54:19;;;;;;;2.17;2.08;;;19.30;93.90;;;;;;4161394;28;20169;-72
2022/06/28 08:56:30;;;;;;;2.80;2.50;;;19.30;93.80;;;;;;4155911;28;20080;-73
2022/06/28 08:58:38;;;;;;;2.78;2.58;;;19.40;93.50;;;;;;4160845;28;20931;-73
2022/06/28 09:00:43;;;;;;;2.78;2.58;;;19.40;93.50;;;;;;4161430;28;20062;-73
2022/06/28 09:02:56;;;;;;;2.33;2.20;;;19.40;93.50;;;;;;4161602;28;20062;-74
2022/06/28 09:05:07;;;;;;;2.42;2.22;;;19.40;93.50;;;;;;4165574;28;20062;-73
2022/06/28 09:07:13;;;;;;;2.42;2.22;;;19.50;93.50;;;;;;4162006;28;20184;-74
2022/06/28 09:09:27;;;;;;;3.97;2.50;;;19.50;93.30;;;;;;4163019;28;20116;-74
2022/06/28 09:12:05;;;;;;;5.65;2.75;;;19.60;93.30;;;;;;4163105;28;20124;-75
2022/06/28 09:17:04;;;;;;;2.65;2.45;;;19.60;93.10;;;;;;4146347;28;20112;-74
2022/06/28 09:19:09;;;;;;;3.03;2.33;;;19.60;93.00;;;;;;4163664;28;20054;-74
2022/06/28 09:21:25;;;;;;;2.35;2.13;;;19.70;92.90;;;;;;4158551;28;20058;-74
2022/06/28 09:23:52;;;;;;;3.15;2.17;;;19.70;92.60;;;;;;4160287;28;20864;-74
2022/06/28 09:28:40;;;;;;;1.70;1.60;;;19.70;92.50;;;;;;4160282;28;20068;-74
2022/06/28 09:30:45;;;;;;;1.52;1.42;;;19.70;92.20;;;;;;4155581;28;20081;-74
2022/06/28 09:32:50;;;;;;;1.63;1.52;;;19.70;92.30;;;;;;4160893;28;20061;-73
2022/06/28 09:35:07;;;;;;;1.25;1.15;;;19.80;92.30;;;;;;4160262;28;20773;-74
2022/06/28 09:37:18;;;;;;;2.05;1.95;;;19.80;92.20;;;;;;4154699;28;20054;-74
2022/06/28 09:39:31;;;;;;;2.33;1.13;;;19.80;92.10;;;;;;4162445;28;20054;-74
2022/06/28 09:41:50;;;;;;;1.40;1.30;;;19.80;92.00;;;;;;4157909;28;20061;-73
2022/06/28 09:44:12;;;;;;;1.60;1.50;;;19.90;92.00;;;;;;4164685;28;20147;-74
2022/06/28 09:46:27;;;;;;;1.40;1.30;;;19.90;92.00;;;;;;4155948;28;20871;-74
2022/06/28 09:48:37;;;;;;;1.50;1.40;;;19.90;91.90;;;;;;4159374;28;20955;-74
2022/06/28 09:50:42;;;;;;;1.30;1.20;;;19.90;91.80;;;;;;4162251;28;20851;-74
2022/06/28 09:52:56;;;;;;;1.08;1.08;;;19.90;91.80;;;;;;4164591;28;20062;-74
2022/06/28 09:55:04;;;;;;;1.40;1.30;;;20.00;91.80;;;;;;4165276;28;20820;-74
2022/06/28 09:57:17;;;;;;;1.40;1.25;;;20.00;91.70;;;;;;4161025;28;20726;-74
2022/06/28 09:59:38;;;;;;;1.50;1.10;;;20.00;91.50;;;;;;4165027;28;20837;-74
2022/06/28 10:01:49;;;;;;;1.00;1.00;;;20.10;91.50;;;;;;4159627;28;20951;-74
2022/06/28 10:03:58;;;;;;;1.25;1.02;;;20.10;91.50;;;;;;4163620;28;20152;-74
2022/06/28 10:06:13;;;;;;;1.92;1.17;;;20.20;91.40;;;;;;4158872;28;20053;-74
2022/06/28 10:08:21;;;;;;;1.98;1.30;;;20.20;91.30;;;;;;4157447;28;20125;-74
2022/06/28 10:10:37;;;;;;;1.30;1.20;;;20.20;91.10;;;;;;4158821;28;20093;-74
2022/06/28 10:15:21;;;;;;;1.42;1.30;;;20.20;90.80;;;;;;4159416;28;20077;-75
2022/06/28 10:17:41;;;;;;;1.00;1.00;;;20.20;90.50;;;;;;4155902;28;20149;-74
2022/06/28 10:19:46;;;;;;;1.00;1.00;;;20.20;90.60;;;;;;4156799;28;20061;-75
2022/06/28 10:22:13;;;;;;;0.88;0.88;;;20.20;90.60;;;;;;4158016;28;20058;-74
2022/06/28 10:24:20;;;;;;;0.90;0.90;;;20.20;90.90;;;;;;4161753;28;20100;-74
2022/06/28 10:26:45;;;;;;;0.90;0.90;;;20.30;90.60;;;;;;4160565;28;20866;-76
2022/06/28 10:29:09;;;;;;;2.08;1.60;;;20.20;90.50;;;;;;4154523;28;20808;-74
2022/06/28 10:31:25;;;;;;;1.10;1.02;;;20.30;90.50;;;;;;4163930;28;20830;-74
2022/06/28 10:34:14;;;;;;;1.30;1.20;;;20.40;90.50;;;;;;4162754;28;20068;-75
2022/06/28 10:36:26;;;;;;;0.93;0.93;;;20.40;90.30;;;;;;4162940;28;20066;-74
2022/06/28 10:38:31;;;;;;;1.02;1.02;;;20.40;90.30;;;;;;4164073;28;21185;-75
2022/06/28 10:40:54;;;;;;;1.20;1.13;;;20.40;90.00;;;;;;4160684;28;20675;-74
2022/06/28 10:43:01;;;;;;;1.33;1.13;;;20.40;90.10;;;;;;4162139;28;20792;-74
2022/06/28 10:45:10;;;;;;;1.05;0.95;;;20.40;89.50;;;;;;4158155;28;20164;-75
2022/06/28 10:50:06;;;;;;;1.38;1.20;;;20.40;89.60;;;;;;4163025;28;19964;-75
2022/06/28 10:52:25;;;;;;;1.20;1.10;;;20.40;89.30;;;;;;4160226;28;20057;-75
2022/06/28 10:54:42;;;;;;;0.95;0.95;;;20.40;89.00;;;;;;4161364;28;20177;-75
2022/06/28 10:56:56;;;;;;;1.85;1.02;;;20.40;89.10;;;;;;4162994;28;20172;-74
2022/06/28 11:01:42;;;;;;;1.02;1.02;;;20.40;89.00;;;;;;4157047;28;20057;-73
2022/06/28 11:04:12;;;;;;;1.20;1.10;;;20.40;88.70;;;;;;4161442;28;20668;-74
2022/06/28 11:06:23;;;;;;;0.70;0.70;;;20.50;88.80;;;;;;4159228;28;20702;-77
2022/06/28 11:08:47;;;;;;;1.27;1.17;;;20.50;88.80;;;;;;4163282;28;20060;-76
2022/06/28 11:11:04;;;;;;;1.70;1.50;;;20.50;87.20;;;;;;4163549;28;20167;-75
2022/06/28 11:14:06;;;;;;;0.88;0.88;;;20.50;87.60;;;;;;4163793;28;20821;-75
2022/06/28 11:16:43;;;;;;;1.00;1.00;;;20.60;87.30;;;;;;4160727;28;20128;-74
2022/06/28 11:22:03;;;;;;;1.05;0.95;;;20.60;86.90;;;;;;4154721;28;20784;-74
2022/06/28 11:24:05;;;;;;;;;;;20.60;86.60;;;;;;4179415;22;20065;-69
2022/06/28 11:28:55;;;;;;;1.35;1.00;;;20.70;86.90;;;;;;4137011;28;20793;-68
2022/06/28 11:30:57;;;;;;;0.95;0.90;;;20.80;86.90;;;;;;4140545;28;20062;-68
2022/06/28 11:32:59;;;;;;;0.80;0.80;;;20.70;86.80;;;;;;4139945;28;20059;-68
2022/06/28 11:35:09;;;;;;;0.65;0.65;;;20.80;86.90;;;;;;4140677;28;20097;-68
2022/06/28 11:37:11;;;;;;;1.85;0.90;;;20.80;86.80;;;;;;4142698;28;20065;-69
2022/06/28 11:39:18;;;;;;;0.95;0.88;;;20.80;86.70;;;;;;4140737;28;20876;-68
2022/06/28 11:41:30;;;;;;;1.48;1.05;;;20.90;86.70;;;;;;4141709;28;20944;-69
2022/06/28 11:43:32;;;;;;;1.70;0.90;;;20.90;86.60;;;;;;4140691;28;20058;-69
2022/06/28 11:45:40;;;;;;;0.90;0.73;;;20.90;86.50;;;;;;4140448;28;20062;-70